sensor_id;sensor_type;location;lat;lon;timestamp;P1;durP1;ratioP1;P2;durP2;ratioP2
4857;SDS011;58975;51.978;8.472;2023-06-10T00:04:50;6.00;;;3.50;;
4857;SDS011;58975;51.978;8.472;2023-06-10T00:09:47;7.18;;;4.40;;
4857;SDS011;58975;51.978;8.472;2023-06-10T00:14:44;6.33;;;3.97;;
4857;SDS011;58975;51.978;8.472;2023-06-10T00:19:41;9.65;;;4.13;;
4857;SDS011;58975;51.978;8.472;2023-06-10T00:24:38;9.53;;;3.83;;
4857;SDS011;58975;51.978;8.472;2023-06-10T00:29:35;11.97;;;3.87;;
4857;SDS011;58975;51.978;8.472;2023-06-10T00:34:31;7.10;;;3.60;;
4857;SDS011;58975;51.978;8.472;2023-06-10T00:39:28;7.07;;;4.00;;
4857;SDS011;58975;51.978;8.472;2023-06-10T00:44:24;5.60;;;4.30;;
4857;SDS011;58975;51.978;8.472;2023-06-10T00:49:21;7.47;;;4.05;;
4857;SDS011;58975;51.978;8.472;2023-06-10T00:54:17;5.95;;;3.38;;
4857;SDS011;58975;51.978;8.472;2023-06-10T00:59:14;5.85;;;3.35;;
4857;SDS011;58975;51.978;8.472;2023-06-10T01:04:11;6.32;;;3.75;;
4857;SDS011;58975;51.978;8.472;2023-06-10T01:14:41;7.68;;;4.00;;
4857;SDS011;58975;51.978;8.472;2023-06-10T01:19:41;5.70;;;3.78;;
4857;SDS011;58975;51.978;8.472;2023-06-10T01:24:40;9.02;;;3.22;;
4857;SDS011;58975;51.978;8.472;2023-06-10T01:29:37;5.03;;;2.85;;
4857;SDS011;58975;51.978;8.472;2023-06-10T01:34:42;4.32;;;3.50;;
4857;SDS011;58975;51.978;8.472;2023-06-10T01:44:38;6.57;;;2.80;;
4857;SDS011;58975;51.978;8.472;2023-06-10T01:49:35;6.43;;;2.92;;
4857;SDS011;58975;51.978;8.472;2023-06-10T01:54:32;6.10;;;3.55;;
4857;SDS011;58975;51.978;8.472;2023-06-10T01:59:30;7.00;;;2.92;;
4857;SDS011;58975;51.978;8.472;2023-06-10T02:04:27;10.45;;;3.85;;
4857;SDS011;58975;51.978;8.472;2023-06-10T02:09:23;5.30;;;3.63;;
4857;SDS011;58975;51.978;8.472;2023-06-10T02:14:20;7.03;;;3.93;;
4857;SDS011;58975;51.978;8.472;2023-06-10T02:19:17;5.80;;;3.85;;
4857;SDS011;58975;51.978;8.472;2023-06-10T02:24:18;6.75;;;4.68;;
4857;SDS011;58975;51.978;8.472;2023-06-10T02:29:14;7.07;;;3.95;;
4857;SDS011;58975;51.978;8.472;2023-06-10T02:34:11;9.40;;;4.13;;
4857;SDS011;58975;51.978;8.472;2023-06-10T02:39:07;6.10;;;3.55;;
4857;SDS011;58975;51.978;8.472;2023-06-10T02:44:04;9.23;;;3.97;;
4857;SDS011;58975;51.978;8.472;2023-06-10T02:49:00;8.70;;;3.97;;
4857;SDS011;58975;51.978;8.472;2023-06-10T02:53:58;7.00;;;3.80;;
4857;SDS011;58975;51.978;8.472;2023-06-10T02:58:54;6.65;;;3.95;;
4857;SDS011;58975;51.978;8.472;2023-06-10T03:03:51;11.85;;;4.00;;
4857;SDS011;58975;51.978;8.472;2023-06-10T03:08:48;8.48;;;4.30;;
4857;SDS011;58975;51.978;8.472;2023-06-10T03:13:45;8.73;;;3.92;;
4857;SDS011;58975;51.978;8.472;2023-06-10T03:18:41;8.25;;;3.70;;
4857;SDS011;58975;51.978;8.472;2023-06-10T03:23:38;9.02;;;4.13;;
4857;SDS011;58975;51.978;8.472;2023-06-10T03:28:35;5.90;;;4.03;;
4857;SDS011;58975;51.978;8.472;2023-06-10T03:33:31;8.70;;;4.00;;
4857;SDS011;58975;51.978;8.472;2023-06-10T03:38:28;7.18;;;3.40;;
4857;SDS011;58975;51.978;8.472;2023-06-10T03:43:25;9.43;;;4.00;;
4857;SDS011;58975;51.978;8.472;2023-06-10T03:48:21;6.78;;;3.30;;
4857;SDS011;58975;51.978;8.472;2023-06-10T03:53:18;10.18;;;3.40;;
4857;SDS011;58975;51.978;8.472;2023-06-10T03:58:14;10.60;;;3.47;;
4857;SDS011;58975;51.978;8.472;2023-06-10T04:03:11;9.15;;;3.13;;
4857;SDS011;58975;51.978;8.472;2023-06-10T04:08:11;6.60;;;3.78;;
4857;SDS011;58975;51.978;8.472;2023-06-10T04:13:07;7.88;;;3.88;;
4857;SDS011;58975;51.978;8.472;2023-06-10T04:18:05;7.47;;;3.88;;
4857;SDS011;58975;51.978;8.472;2023-06-10T04:23:02;5.88;;;3.80;;
4857;SDS011;58975;51.978;8.472;2023-06-10T04:27:59;8.73;;;4.10;;
4857;SDS011;58975;51.978;8.472;2023-06-10T04:32:55;8.55;;;4.07;;
4857;SDS011;58975;51.978;8.472;2023-06-10T04:37:53;8.20;;;3.28;;
4857;SDS011;58975;51.978;8.472;2023-06-10T04:42:49;8.52;;;3.70;;
4857;SDS011;58975;51.978;8.472;2023-06-10T04:47:46;6.85;;;3.70;;
4857;SDS011;58975;51.978;8.472;2023-06-10T04:52:43;6.20;;;3.47;;
4857;SDS011;58975;51.978;8.472;2023-06-10T04:57:40;8.30;;;4.33;;
4857;SDS011;58975;51.978;8.472;2023-06-10T05:02:37;7.63;;;3.55;;
4857;SDS011;58975;51.978;8.472;2023-06-10T05:07:33;9.75;;;3.78;;
4857;SDS011;58975;51.978;8.472;2023-06-10T05:12:30;5.20;;;3.63;;
4857;SDS011;58975;51.978;8.472;2023-06-10T05:17:27;9.65;;;3.35;;
4857;SDS011;58975;51.978;8.472;2023-06-10T05:22:24;6.05;;;3.60;;
4857;SDS011;58975;51.978;8.472;2023-06-10T05:27:21;9.88;;;3.40;;
4857;SDS011;58975;51.978;8.472;2023-06-10T05:32:18;5.43;;;2.67;;
4857;SDS011;58975;51.978;8.472;2023-06-10T05:37:14;6.70;;;3.70;;
4857;SDS011;58975;51.978;8.472;2023-06-10T05:42:11;5.82;;;2.90;;
4857;SDS011;58975;51.978;8.472;2023-06-10T05:47:07;4.63;;;3.20;;
4857;SDS011;58975;51.978;8.472;2023-06-10T05:52:04;8.13;;;2.85;;
4857;SDS011;58975;51.978;8.472;2023-06-10T05:57:01;11.60;;;3.00;;
4857;SDS011;58975;51.978;8.472;2023-06-10T06:01:59;5.05;;;3.38;;
4857;SDS011;58975;51.978;8.472;2023-06-10T06:06:56;6.40;;;3.08;;
4857;SDS011;58975;51.978;8.472;2023-06-10T06:11:52;5.10;;;3.03;;
4857;SDS011;58975;51.978;8.472;2023-06-10T06:16:49;7.88;;;3.05;;
4857;SDS011;58975;51.978;8.472;2023-06-10T06:21:45;7.55;;;2.83;;
4857;SDS011;58975;51.978;8.472;2023-06-10T06:26:42;4.22;;;2.70;;
4857;SDS011;58975;51.978;8.472;2023-06-10T06:31:38;7.15;;;3.10;;
4857;SDS011;58975;51.978;8.472;2023-06-10T06:36:35;7.75;;;2.70;;
4857;SDS011;58975;51.978;8.472;2023-06-10T06:41:31;9.45;;;3.40;;
4857;SDS011;58975;51.978;8.472;2023-06-10T06:46:28;4.13;;;2.50;;
4857;SDS011;58975;51.978;8.472;2023-06-10T06:51:24;8.30;;;3.00;;
4857;SDS011;58975;51.978;8.472;2023-06-10T06:56:21;8.23;;;2.88;;
4857;SDS011;58975;51.978;8.472;2023-06-10T07:01:17;4.03;;;2.83;;
4857;SDS011;58975;51.978;8.472;2023-06-10T07:06:14;8.13;;;2.90;;
4857;SDS011;58975;51.978;8.472;2023-06-10T07:11:11;5.33;;;2.50;;
4857;SDS011;58975;51.978;8.472;2023-06-10T07:16:07;3.72;;;2.40;;
4857;SDS011;58975;51.978;8.472;2023-06-10T07:21:03;7.40;;;3.22;;
4857;SDS011;58975;51.978;8.472;2023-06-10T07:26:00;7.57;;;2.77;;
4857;SDS011;58975;51.978;8.472;2023-06-10T07:30:56;4.67;;;2.27;;
4857;SDS011;58975;51.978;8.472;2023-06-10T07:35:53;4.00;;;2.13;;
4857;SDS011;58975;51.978;8.472;2023-06-10T07:40:49;7.72;;;2.78;;
4857;SDS011;58975;51.978;8.472;2023-06-10T07:45:46;3.67;;;2.37;;
4857;SDS011;58975;51.978;8.472;2023-06-10T07:50:43;6.85;;;2.67;;
4857;SDS011;58975;51.978;8.472;2023-06-10T07:55:40;7.77;;;2.80;;
4857;SDS011;58975;51.978;8.472;2023-06-10T08:00:36;6.40;;;2.90;;
4857;SDS011;58975;51.978;8.472;2023-06-10T08:05:33;4.43;;;2.67;;
4857;SDS011;58975;51.978;8.472;2023-06-10T08:10:29;4.10;;;2.37;;
4857;SDS011;58975;51.978;8.472;2023-06-10T08:15:26;10.37;;;3.10;;
4857;SDS011;58975;51.978;8.472;2023-06-10T08:20:22;6.13;;;2.63;;
4857;SDS011;58975;51.978;8.472;2023-06-10T08:25:19;7.73;;;2.90;;
4857;SDS011;58975;51.978;8.472;2023-06-10T08:30:17;8.13;;;3.22;;
4857;SDS011;58975;51.978;8.472;2023-06-10T08:35:14;11.35;;;2.97;;
4857;SDS011;58975;51.978;8.472;2023-06-10T08:40:11;5.33;;;3.23;;
4857;SDS011;58975;51.978;8.472;2023-06-10T08:45:07;7.75;;;2.72;;
4857;SDS011;58975;51.978;8.472;2023-06-10T08:50:12;8.23;;;2.55;;
4857;SDS011;58975;51.978;8.472;2023-06-10T09:00:08;4.38;;;2.67;;
4857;SDS011;58975;51.978;8.472;2023-06-10T09:05:06;5.47;;;2.75;;
4857;SDS011;58975;51.978;8.472;2023-06-10T09:10:04;6.00;;;3.03;;
4857;SDS011;58975;51.978;8.472;2023-06-10T09:15:04;4.35;;;2.63;;
4857;SDS011;58975;51.978;8.472;2023-06-10T09:20:01;7.18;;;2.70;;
4857;SDS011;58975;51.978;8.472;2023-06-10T09:25:02;5.72;;;2.35;;
4857;SDS011;58975;51.978;8.472;2023-06-10T09:30:00;9.07;;;2.45;;
4857;SDS011;58975;51.978;8.472;2023-06-10T09:34:56;5.38;;;2.63;;
4857;SDS011;58975;51.978;8.472;2023-06-10T09:40:27;4.95;;;3.15;;
4857;SDS011;58975;51.978;8.472;2023-06-10T09:45:16;6.60;;;2.60;;
4857;SDS011;58975;51.978;8.472;2023-06-10T09:50:13;5.57;;;2.75;;
4857;SDS011;58975;51.978;8.472;2023-06-10T10:05:05;5.75;;;2.55;;
4857;SDS011;58975;51.978;8.472;2023-06-10T10:10:03;4.75;;;2.85;;
4857;SDS011;58975;51.978;8.472;2023-06-10T10:14:59;6.40;;;2.60;;
4857;SDS011;58975;51.978;8.472;2023-06-10T10:20:00;4.68;;;2.83;;
4857;SDS011;58975;51.978;8.472;2023-06-10T10:25:01;5.35;;;2.90;;
4857;SDS011;58975;51.978;8.472;2023-06-10T10:30:02;6.75;;;3.60;;
4857;SDS011;58975;51.978;8.472;2023-06-10T10:35:10;5.30;;;2.47;;
4857;SDS011;58975;51.978;8.472;2023-06-10T10:40:12;5.07;;;3.00;;
4857;SDS011;58975;51.978;8.472;2023-06-10T10:45:09;7.18;;;2.80;;
4857;SDS011;58975;51.978;8.472;2023-06-10T10:50:14;5.57;;;2.58;;
4857;SDS011;58975;51.978;8.472;2023-06-10T10:55:13;3.83;;;2.30;;
4857;SDS011;58975;51.978;8.472;2023-06-10T11:00:09;4.47;;;3.20;;
4857;SDS011;58975;51.978;8.472;2023-06-10T11:05:07;6.22;;;2.60;;
4857;SDS011;58975;51.978;8.472;2023-06-10T11:10:13;8.75;;;3.10;;
4857;SDS011;58975;51.978;8.472;2023-06-10T11:15:17;6.85;;;2.60;;
4857;SDS011;58975;51.978;8.472;2023-06-10T11:20:34;5.90;;;2.90;;
4857;SDS011;58975;51.978;8.472;2023-06-10T11:25:40;5.57;;;2.80;;
4857;SDS011;58975;51.978;8.472;2023-06-10T11:30:36;6.10;;;2.83;;
4857;SDS011;58975;51.978;8.472;2023-06-10T11:35:33;7.18;;;3.20;;
4857;SDS011;58975;51.978;8.472;2023-06-10T11:40:29;10.70;;;3.35;;
4857;SDS011;58975;51.978;8.472;2023-06-10T11:45:26;5.57;;;2.75;;
4857;SDS011;58975;51.978;8.472;2023-06-10T11:50:30;5.43;;;3.10;;
4857;SDS011;58975;51.978;8.472;2023-06-10T11:55:45;5.03;;;3.17;;
4857;SDS011;58975;51.978;8.472;2023-06-10T12:00:50;3.83;;;3.03;;
4857;SDS011;58975;51.978;8.472;2023-06-10T12:05:59;5.10;;;3.47;;
4857;SDS011;58975;51.978;8.472;2023-06-10T12:10:56;5.60;;;3.20;;
4857;SDS011;58975;51.978;8.472;2023-06-10T12:15:53;7.75;;;3.45;;
4857;SDS011;58975;51.978;8.472;2023-06-10T12:20:51;6.82;;;3.05;;
4857;SDS011;58975;51.978;8.472;2023-06-10T12:25:51;5.90;;;3.25;;
4857;SDS011;58975;51.978;8.472;2023-06-10T12:30:51;7.25;;;3.05;;
4857;SDS011;58975;51.978;8.472;2023-06-10T12:36:03;6.88;;;3.38;;
4857;SDS011;58975;51.978;8.472;2023-06-10T12:41:01;5.13;;;3.10;;
4857;SDS011;58975;51.978;8.472;2023-06-10T12:46:09;5.55;;;3.47;;
4857;SDS011;58975;51.978;8.472;2023-06-10T12:51:09;8.10;;;3.78;;
4857;SDS011;58975;51.978;8.472;2023-06-10T12:56:05;6.03;;;3.10;;
4857;SDS011;58975;51.978;8.472;2023-06-10T13:01:02;6.00;;;3.50;;
4857;SDS011;58975;51.978;8.472;2023-06-10T13:05:58;6.38;;;3.50;;
4857;SDS011;58975;51.978;8.472;2023-06-10T13:10:55;4.95;;;3.03;;
4857;SDS011;58975;51.978;8.472;2023-06-10T13:15:51;5.07;;;3.30;;
4857;SDS011;58975;51.978;8.472;2023-06-10T13:20:48;5.30;;;3.83;;
4857;SDS011;58975;51.978;8.472;2023-06-10T13:25:44;5.82;;;3.20;;
4857;SDS011;58975;51.978;8.472;2023-06-10T13:30:41;8.25;;;3.22;;
4857;SDS011;58975;51.978;8.472;2023-06-10T13:35:38;4.00;;;2.83;;
4857;SDS011;58975;51.978;8.472;2023-06-10T13:40:34;4.25;;;3.10;;
4857;SDS011;58975;51.978;8.472;2023-06-10T13:45:31;5.03;;;3.05;;
4857;SDS011;58975;51.978;8.472;2023-06-10T13:50:27;5.28;;;2.78;;
4857;SDS011;58975;51.978;8.472;2023-06-10T13:55:24;4.82;;;3.45;;
4857;SDS011;58975;51.978;8.472;2023-06-10T14:00:21;4.88;;;3.67;;
4857;SDS011;58975;51.978;8.472;2023-06-10T14:10:13;5.95;;;3.17;;
4857;SDS011;58975;51.978;8.472;2023-06-10T14:15:10;4.45;;;3.00;;
4857;SDS011;58975;51.978;8.472;2023-06-10T14:20:07;5.72;;;3.03;;
4857;SDS011;58975;51.978;8.472;2023-06-10T14:25:04;4.43;;;3.58;;
4857;SDS011;58975;51.978;8.472;2023-06-10T14:30:01;6.53;;;3.38;;
4857;SDS011;58975;51.978;8.472;2023-06-10T14:34:59;5.10;;;3.90;;
4857;SDS011;58975;51.978;8.472;2023-06-10T14:39:56;6.40;;;3.28;;
4857;SDS011;58975;51.978;8.472;2023-06-10T14:49:49;5.18;;;3.47;;
4857;SDS011;58975;51.978;8.472;2023-06-10T14:54:46;5.30;;;3.80;;
4857;SDS011;58975;51.978;8.472;2023-06-10T15:09:35;5.13;;;3.58;;
4857;SDS011;58975;51.978;8.472;2023-06-10T15:24:25;6.30;;;4.38;;
4857;SDS011;58975;51.978;8.472;2023-06-10T15:29:21;10.27;;;4.68;;
4857;SDS011;58975;51.978;8.472;2023-06-10T15:39:14;7.82;;;3.85;;
4857;SDS011;58975;51.978;8.472;2023-06-10T15:44:11;5.43;;;4.00;;
4857;SDS011;58975;51.978;8.472;2023-06-10T15:54:04;6.60;;;3.80;;
4857;SDS011;58975;51.978;8.472;2023-06-10T15:59:01;5.32;;;3.78;;
4857;SDS011;58975;51.978;8.472;2023-06-10T16:03:57;5.82;;;4.00;;
4857;SDS011;58975;51.978;8.472;2023-06-10T16:08:54;8.70;;;4.22;;
4857;SDS011;58975;51.978;8.472;2023-06-10T16:13:50;9.68;;;4.53;;
4857;SDS011;58975;51.978;8.472;2023-06-10T16:23:43;8.73;;;3.92;;
4857;SDS011;58975;51.978;8.472;2023-06-10T16:28:40;4.82;;;3.92;;
4857;SDS011;58975;51.978;8.472;2023-06-10T16:33:36;4.97;;;3.67;;
4857;SDS011;58975;51.978;8.472;2023-06-10T16:38:33;6.03;;;3.83;;
4857;SDS011;58975;51.978;8.472;2023-06-10T16:43:29;6.20;;;3.88;;
4857;SDS011;58975;51.978;8.472;2023-06-10T16:48:26;8.00;;;3.28;;
4857;SDS011;58975;51.978;8.472;2023-06-10T16:53:22;6.53;;;3.50;;
4857;SDS011;58975;51.978;8.472;2023-06-10T16:58:19;5.60;;;3.22;;
4857;SDS011;58975;51.978;8.472;2023-06-10T17:03:15;6.63;;;3.90;;
4857;SDS011;58975;51.978;8.472;2023-06-10T17:08:12;6.97;;;3.47;;
4857;SDS011;58975;51.978;8.472;2023-06-10T17:13:08;6.57;;;3.42;;
4857;SDS011;58975;51.978;8.472;2023-06-10T17:18:05;5.45;;;3.55;;
4857;SDS011;58975;51.978;8.472;2023-06-10T17:23:01;8.63;;;3.50;;
4857;SDS011;58975;51.978;8.472;2023-06-10T17:27:58;5.38;;;3.60;;
4857;SDS011;58975;51.978;8.472;2023-06-10T17:32:54;5.47;;;3.97;;
4857;SDS011;58975;51.978;8.472;2023-06-10T17:37:51;5.72;;;3.60;;
4857;SDS011;58975;51.978;8.472;2023-06-10T17:42:48;3.97;;;3.40;;
4857;SDS011;58975;51.978;8.472;2023-06-10T17:47:44;6.78;;;4.22;;
4857;SDS011;58975;51.978;8.472;2023-06-10T17:52:40;6.53;;;3.97;;
4857;SDS011;58975;51.978;8.472;2023-06-10T17:57:37;5.88;;;3.90;;
4857;SDS011;58975;51.978;8.472;2023-06-10T18:02:34;4.50;;;3.80;;
4857;SDS011;58975;51.978;8.472;2023-06-10T18:07:31;4.65;;;3.83;;
4857;SDS011;58975;51.978;8.472;2023-06-10T18:12:27;8.18;;;3.83;;
4857;SDS011;58975;51.978;8.472;2023-06-10T18:17:24;4.65;;;4.05;;
4857;SDS011;58975;51.978;8.472;2023-06-10T18:22:20;7.43;;;3.65;;
4857;SDS011;58975;51.978;8.472;2023-06-10T18:27:17;10.63;;;4.93;;
4857;SDS011;58975;51.978;8.472;2023-06-10T18:32:13;7.78;;;4.40;;
4857;SDS011;58975;51.978;8.472;2023-06-10T18:37:11;9.60;;;6.38;;
4857;SDS011;58975;51.978;8.472;2023-06-10T18:42:07;7.85;;;4.20;;
4857;SDS011;58975;51.978;8.472;2023-06-10T18:47:04;5.38;;;4.65;;
4857;SDS011;58975;51.978;8.472;2023-06-10T18:52:01;7.93;;;4.68;;
4857;SDS011;58975;51.978;8.472;2023-06-10T18:56:58;8.25;;;5.18;;
4857;SDS011;58975;51.978;8.472;2023-06-10T19:01:54;9.55;;;4.72;;
4857;SDS011;58975;51.978;8.472;2023-06-10T19:06:51;6.68;;;3.97;;
4857;SDS011;58975;51.978;8.472;2023-06-10T19:11:48;4.90;;;3.70;;
4857;SDS011;58975;51.978;8.472;2023-06-10T19:16:44;3.95;;;3.22;;
4857;SDS011;58975;51.978;8.472;2023-06-10T19:21:41;4.35;;;3.22;;
4857;SDS011;58975;51.978;8.472;2023-06-10T19:26:37;6.03;;;3.35;;
4857;SDS011;58975;51.978;8.472;2023-06-10T19:31:37;4.15;;;2.85;;
4857;SDS011;58975;51.978;8.472;2023-06-10T19:36:33;5.13;;;3.00;;
4857;SDS011;58975;51.978;8.472;2023-06-10T19:41:30;4.70;;;3.00;;
4857;SDS011;58975;51.978;8.472;2023-06-10T19:46:26;6.72;;;2.75;;
4857;SDS011;58975;51.978;8.472;2023-06-10T19:51:23;3.20;;;2.88;;
4857;SDS011;58975;51.978;8.472;2023-06-10T19:56:20;4.75;;;2.72;;
4857;SDS011;58975;51.978;8.472;2023-06-10T20:01:18;3.38;;;3.08;;
4857;SDS011;58975;51.978;8.472;2023-06-10T20:06:15;2.97;;;2.67;;
4857;SDS011;58975;51.978;8.472;2023-06-10T20:11:11;4.53;;;3.17;;
4857;SDS011;58975;51.978;8.472;2023-06-10T20:16:08;5.00;;;2.93;;
4857;SDS011;58975;51.978;8.472;2023-06-10T20:21:04;5.15;;;3.05;;
4857;SDS011;58975;51.978;8.472;2023-06-10T20:26:01;5.43;;;3.05;;
4857;SDS011;58975;51.978;8.472;2023-06-10T20:30:58;4.57;;;2.93;;
4857;SDS011;58975;51.978;8.472;2023-06-10T20:35:56;6.60;;;3.70;;
4857;SDS011;58975;51.978;8.472;2023-06-10T20:40:53;6.60;;;3.13;;
4857;SDS011;58975;51.978;8.472;2023-06-10T20:45:50;3.28;;;2.80;;
4857;SDS011;58975;51.978;8.472;2023-06-10T20:50:46;7.13;;;3.30;;
4857;SDS011;58975;51.978;8.472;2023-06-10T20:55:43;6.50;;;3.17;;
4857;SDS011;58975;51.978;8.472;2023-06-10T21:00:40;5.23;;;3.33;;
4857;SDS011;58975;51.978;8.472;2023-06-10T21:05:36;4.40;;;3.57;;
4857;SDS011;58975;51.978;8.472;2023-06-10T21:10:33;5.07;;;3.17;;
4857;SDS011;58975;51.978;8.472;2023-06-10T21:15:29;4.60;;;3.13;;
4857;SDS011;58975;51.978;8.472;2023-06-10T21:20:26;5.43;;;2.97;;
4857;SDS011;58975;51.978;8.472;2023-06-10T21:25:23;6.87;;;3.33;;
4857;SDS011;58975;51.978;8.472;2023-06-10T21:30:19;4.70;;;3.30;;
4857;SDS011;58975;51.978;8.472;2023-06-10T21:35:16;3.13;;;2.83;;
4857;SDS011;58975;51.978;8.472;2023-06-10T21:40:13;5.28;;;2.72;;
4857;SDS011;58975;51.978;8.472;2023-06-10T21:50:07;4.70;;;3.23;;
4857;SDS011;58975;51.978;8.472;2023-06-10T21:55:04;3.35;;;2.95;;
4857;SDS011;58975;51.978;8.472;2023-06-10T22:00:01;3.42;;;2.80;;
4857;SDS011;58975;51.978;8.472;2023-06-10T22:05:07;4.70;;;3.42;;
4857;SDS011;58975;51.978;8.472;2023-06-10T22:10:04;5.22;;;3.42;;
4857;SDS011;58975;51.978;8.472;2023-06-10T22:15:01;3.97;;;3.17;;
4857;SDS011;58975;51.978;8.472;2023-06-10T22:19:59;7.70;;;3.78;;
4857;SDS011;58975;51.978;8.472;2023-06-10T22:24:56;5.20;;;3.67;;
4857;SDS011;58975;51.978;8.472;2023-06-10T22:29:53;4.80;;;2.90;;
4857;SDS011;58975;51.978;8.472;2023-06-10T22:34:49;8.73;;;4.00;;
4857;SDS011;58975;51.978;8.472;2023-06-10T22:39:46;4.60;;;4.13;;
4857;SDS011;58975;51.978;8.472;2023-06-10T22:44:42;5.10;;;3.85;;
4857;SDS011;58975;51.978;8.472;2023-06-10T22:49:42;6.40;;;3.97;;
4857;SDS011;58975;51.978;8.472;2023-06-10T22:54:39;6.88;;;4.10;;
4857;SDS011;58975;51.978;8.472;2023-06-10T22:59:36;5.88;;;3.20;;
4857;SDS011;58975;51.978;8.472;2023-06-10T23:04:32;5.32;;;3.90;;
4857;SDS011;58975;51.978;8.472;2023-06-10T23:09:29;4.47;;;3.67;;
4857;SDS011;58975;51.978;8.472;2023-06-10T23:14:25;5.40;;;3.63;;
4857;SDS011;58975;51.978;8.472;2023-06-10T23:19:22;6.97;;;3.95;;
4857;SDS011;58975;51.978;8.472;2023-06-10T23:24:20;5.82;;;4.07;;
4857;SDS011;58975;51.978;8.472;2023-06-10T23:29:17;6.40;;;4.30;;
4857;SDS011;58975;51.978;8.472;2023-06-10T23:34:14;5.82;;;4.32;;
4857;SDS011;58975;51.978;8.472;2023-06-10T23:39:11;5.82;;;4.53;;
4857;SDS011;58975;51.978;8.472;2023-06-10T23:44:07;9.77;;;5.57;;
4857;SDS011;58975;51.978;8.472;2023-06-10T23:49:04;12.13;;;6.80;;
4857;SDS011;58975;51.978;8.472;2023-06-10T23:54:02;6.78;;;5.60;;
4857;SDS011;58975;51.978;8.472;2023-06-10T23:58:59;9.02;;;5.68;;
